• Join FlightAware (Why Join?)
  • Login
  • US Flag 
03:53AM EDT


 

Airport Tracker/Info


-or-


 

Live Flight TrackerFlight Track Log ✈ CJC4863 ✈ 26-May-2012 ✈ KBTV - KEWR

Flight Track Log - Related Links

Times and Time Zones

All times are in EDT time to prevent confusion due to time zone crossing. See the CJC4863 flight status page for this flight to view local times or setup timezone preferences in your user account.

Time Position Orientation Groundspeed Altitude Reporting Facility
EDT Latitude Longitude Course Direction KTS MPH feet Rate Location/Type
05:52AM 44.2861 -73.1853 196° South 227 261 8,700  Level Boston Center
05:56AM 44.0353 -73.2861 197° South 238 274 16,100 1,740 Climbing Boston Center
05:57AM 43.9747 -73.3114 197° South 238 274 17,500 900 Climbing Boston Center
05:58AM 43.9142 -73.3364 195° South 244 281 18,000 240 Climbing Boston Center
05:59AM 43.8389 -73.3642 196° South 270 311 18,000  Level Boston Center
06:00AM 43.7553 -73.3972 197° South 303 349 18,000  Level Boston Center
06:01AM 43.6611 -73.4358 196° South 323 372 18,000  Level Boston Center
06:02AM 43.5692 -73.4717 196° South 328 377 18,000  Level Boston Center
06:03AM 43.4792 -73.5072 194° South 334 384 18,000  Level Boston Center
06:04AM 43.3892 -73.5372 196° South 339 390 18,000  Level Boston Center
06:05AM 43.2992 -73.5728 196° South 339 390 18,000  Level Boston Center
06:06AM 43.2072 -73.6081 198° South 339 390 18,000  Level Boston Center
06:07AM 43.1192 -73.6461 198° South 339 390 18,000  Level Boston Center
06:08AM 43.0314 -73.6842 198° South 339 390 18,000  Level Boston Center
06:09AM 42.9497 -73.7194 200° South 339 390 18,000 -60 Level Boston Center
06:10AM 42.8617 -73.7628 196° South 339 390 17,900 -900 Descending Boston Center
06:11AM 42.7675 -73.8006 197° South 346 398 16,300 -960 Descending Boston Center
06:12AM 42.6794 -73.8381 197° South 346 398 16,000 -180 Descending Boston Center
06:13AM 42.5850 -73.8783 197° South 346 398 16,000  Level Boston Center
06:14AM 42.5033 -73.9131 198° South 341 392 16,000  Level Boston Center
06:15AM 42.4028 -73.9583 198° South 349 402 16,000  Level Boston Center
06:16AM 42.3253 -73.9931 198° South 343 395 16,000  Level Boston Center
06:17AM 42.2244 -74.0381 199° South 343 395 16,000  Level Boston Center
06:18AM 42.1447 -74.0753 198° South 348 400 16,000  Level Boston Center
06:19AM 42.0544 -74.1150 197° South 348 400 16,000 -660 Level Boston Center
06:20AM 41.9581 -74.1542 199° South 348 400 14,700 -1,320 Descending Boston Center
06:21AM 41.8761 -74.1911 198° South 348 400 13,400 -1,440 Descending Boston Center
06:22AM 41.7756 -74.2356 198° South 348 400 11,900 -1,440 Descending Boston Center
06:23AM 41.7042 -74.2669 197° South 330 380 10,600 -1,260 Descending Boston Center
06:24AM 41.6203 -74.3006 200° South 298 343 9,400 -1,080 Descending Boston Center
06:25AM 41.5550 -74.3319 198° South 284 327 8,500 -1,020 Descending Boston Center
06:26AM 41.4731 -74.3683 199° South 284 327 7,400 -600 Descending Boston Center
06:28AM 41.3667 -74.4167 180° South 265 305 7,000 -240 Descending New York TRACON
06:29AM 41.3000 -74.4167 180° South 265 305 6,800 -660 Descending New York TRACON
06:30AM 41.2167 -74.4167 169° South 271 312 5,700 -960 Descending New York TRACON
06:31AM 41.1500 -74.4000 143° Southeast 269 310 5,000 -420 Descending New York TRACON
06:32AM 41.1000 -74.3500 143° Southeast 274 315 5,000 -420 Level New York TRACON
06:33AM 41.0333 -74.2833 135° Southeast 276 318 4,200 -960 Descending New York TRACON
06:34AM 40.9833 -74.2167 143° Southeast 267 307 3,100 -660 Descending New York TRACON
06:35AM 40.9333 -74.1667 135° Southeast 258 297 3,000 -60 Descending New York TRACON
06:35AM 40.8833 -74.1000 166° South 260 299 3,000 -240 Level New York TRACON
06:36AM 40.8333 -74.0833 194° South 224 258 2,600 -660 Descending New York TRACON
06:37AM 40.7833 -74.1000 201° Southwest 188 216 1,900 -780 Descending New York TRACON
06:38AM 40.7500 -74.1167 180° South 162 186 1,200 -660 Descending New York TRACON
06:39AM 40.7167 -74.1167 180° South 123 142 600 -600 Descending New York TRACON